Time;durP1;ratioP1;P1;durP2;ratioP2;P2;SDS_P1;SDS_P2;PMS_P1;PMS_P2;Temp;Humidity;BMP_temperature;BMP_pressure;BME280_temperature;BME280_humidity;BME280_pressure;Samples;Min_cycle;Max_cycle;Signal;HPM_P1;HPM_P2
2022/03/14 00:01:12;;;;;;;;;;;8.80;69.00;;;;;;5034293;28;19917;-84
2022/03/14 00:03:55;;;;;;;;;;;8.80;73.30;;;;;;5056861;28;20453;-85
2022/03/14 00:06:20;;;;;;;;;;;8.80;76.30;;;;;;5051612;28;19935;-85
2022/03/14 00:08:46;;;;;;;;;;;8.90;84.90;;;;;;5040407;28;20293;-86
2022/03/14 00:11:14;;;;;;;;;;;8.90;90.80;;;;;;5046436;28;20378;-85
2022/03/14 00:13:44;;;;;;;;;;;8.90;98.10;;;;;;5031937;28;19913;-85
2022/03/14 00:16:10;;;;;;;;;;;9.00;99.90;;;;;;5042568;28;19919;-85
2022/03/14 00:18:36;;;;;;;;;;;9.00;99.90;;;;;;5047194;28;19916;-86
2022/03/14 00:21:01;;;;;;;;;;;9.00;99.90;;;;;;5052211;28;19920;-85
2022/03/14 00:23:27;;;;;;;;;;;9.00;99.90;;;;;;5040561;28;19921;-84
2022/03/14 00:25:54;;;;;;;;;;;9.00;99.90;;;;;;5063842;28;19925;-86
2022/03/14 00:28:20;;;;;;;;;;;9.00;99.90;;;;;;5051737;28;19912;-86
2022/03/14 00:30:45;;;;;;;;;;;9.00;99.90;;;;;;5042114;28;19940;-84
2022/03/14 00:33:11;;;;;;;;;;;9.00;99.90;;;;;;5042793;28;19936;-85
2022/03/14 00:35:36;;;;;;;;;;;9.00;99.90;;;;;;5058526;28;20396;-86
2022/03/14 00:38:02;;;;;;;;;;;9.00;99.90;;;;;;5049766;28;20059;-85
2022/03/14 00:40:28;;;;;;;;;;;9.00;99.90;;;;;;5031723;28;19925;-85
2022/03/14 00:42:53;;;;;;;;;;;8.90;99.90;;;;;;5049156;28;20252;-86
2022/03/14 00:45:20;;;;;;;;;;;8.90;99.90;;;;;;5038505;28;19917;-85
2022/03/14 00:47:45;;;;;;;;;;;8.80;99.90;;;;;;5047147;28;19920;-86
2022/03/14 00:50:11;;;;;;;;;;;8.70;99.90;;;;;;5046879;28;19925;-85
2022/03/14 00:52:36;;;;;;;;;;;8.70;99.90;;;;;;5033709;28;19924;-86
2022/03/14 00:55:02;;;;;;;;;;;8.60;99.90;;;;;;5033043;28;20012;-86
2022/03/14 00:57:28;;;;;;;;;;;8.50;99.90;;;;;;5040830;28;20358;-86
2022/03/14 00:59:53;;;;;;;;;;;8.50;99.90;;;;;;5047322;28;19952;-85
2022/03/14 01:02:18;;;;;;;;;;;8.40;99.90;;;;;;5058268;28;19948;-86
2022/03/14 01:04:44;;;;;;;;;;;8.30;99.90;;;;;;5061614;28;19999;-84
2022/03/14 01:07:09;;;;;;;;;;;8.20;99.90;;;;;;5054973;28;19944;-86
2022/03/14 01:09:35;;;;;;;;;;;8.20;99.90;;;;;;5046028;28;19913;-85
2022/03/14 01:12:01;;;;;;;;;;;8.20;99.90;;;;;;5061976;28;20448;-85
2022/03/14 01:14:26;;;;;;;;;;;8.10;99.90;;;;;;5045305;28;19913;-84
2022/03/14 01:16:52;;;;;;;;;;;8.10;99.90;;;;;;5064626;28;19921;-85
2022/03/14 01:19:18;;;;;;;;;;;8.10;99.90;;;;;;5066448;28;19917;-86
2022/03/14 01:21:43;;;;;;;;;;;8.00;99.90;;;;;;5060537;28;19971;-85
2022/03/14 01:24:09;;;;;;;;;;;8.00;99.90;;;;;;5052507;28;20434;-85
2022/03/14 01:26:34;;;;;;;;;;;8.00;99.90;;;;;;5037923;28;19917;-83
2022/03/14 01:29:03;;;;;;;;;;;7.90;99.90;;;;;;5035832;28;19917;-85
2022/03/14 01:31:29;;;;;;;;;;;7.90;99.90;;;;;;5046867;28;19952;-84
2022/03/14 01:33:54;;;;;;;;;;;7.90;99.90;;;;;;5050542;28;19957;-85
2022/03/14 01:36:20;;;;;;;;;;;7.90;99.90;;;;;;5047352;28;19919;-84
2022/03/14 01:38:45;;;;;;;;;;;7.90;99.90;;;;;;5050190;28;19921;-86
2022/03/14 01:41:11;;;;;;;;;;;7.90;99.90;;;;;;5067807;28;19917;-84
2022/03/14 01:43:37;;;;;;;;;;;7.80;99.90;;;;;;5063178;28;19952;-84
2022/03/14 01:46:02;;;;;;;;;;;7.80;99.90;;;;;;5056715;28;19917;-85
2022/03/14 01:48:28;;;;;;;;;;;7.80;99.90;;;;;;5048784;28;19985;-84
2022/03/14 01:50:53;;;;;;;;;;;7.80;99.90;;;;;;5050605;28;20489;-86
2022/03/14 01:53:19;;;;;;;;;;;7.80;99.90;;;;;;5045319;28;19921;-85
2022/03/14 01:55:46;;;;;;;;;;;7.70;99.90;;;;;;5038184;28;20403;-86
2022/03/14 01:58:11;;;;;;;;;;;7.70;99.90;;;;;;5043034;28;19936;-86
2022/03/14 02:00:37;;;;;;;;;;;7.70;99.90;;;;;;5065890;28;20284;-85
2022/03/14 02:03:02;;;;;;;;;;;7.70;99.90;;;;;;5060447;28;19921;-84
2022/03/14 02:05:28;;;;;;;;;;;7.70;99.90;;;;;;5061341;28;19921;-84
2022/03/14 02:07:57;;;;;;;;;;;7.60;99.90;;;;;;5043186;28;20697;-85
2022/03/14 02:10:23;;;;;;;;;;;7.60;99.90;;;;;;5060602;28;19917;-84
2022/03/14 02:12:48;;;;;;;;;;;7.70;99.90;;;;;;5061015;28;20011;-85
2022/03/14 02:15:13;;;;;;;;;;;7.60;99.90;;;;;;5060117;28;19921;-85
2022/03/14 02:17:39;;;;;;;;;;;7.60;99.90;;;;;;5048021;28;19925;-84
2022/03/14 02:20:05;;;;;;;;;;;7.60;99.90;;;;;;5067436;28;20393;-84
2022/03/14 02:22:30;;;;;;;;;;;7.60;99.90;;;;;;5036823;28;19921;-84
2022/03/14 02:24:56;;;;;;;;;;;7.60;99.90;;;;;;5050628;28;19918;-85
2022/03/14 02:27:22;;;;;;;;;;;7.60;99.90;;;;;;5051003;28;19925;-84
2022/03/14 02:29:47;;;;;;;;;;;7.60;99.90;;;;;;5043606;28;19920;-85
2022/03/14 02:32:13;;;;;;;;;;;7.60;99.90;;;;;;5049844;28;19933;-85
2022/03/14 02:34:39;;;;;;;;;;;7.60;99.90;;;;;;5048116;28;19917;-85
2022/03/14 02:37:05;;;;;;;;;;;7.50;99.90;;;;;;5034532;28;19913;-84
2022/03/14 02:39:34;;;;;;;;;;;7.50;99.90;;;;;;5030774;28;19925;-84
2022/03/14 02:42:01;;;;;;;;;;;7.50;99.90;;;;;;5051609;28;19921;-85
2022/03/14 02:44:27;;;;;;;;;;;7.50;99.90;;;;;;5056000;28;20000;-85
2022/03/14 02:46:53;;;;;;;;;;;7.50;99.90;;;;;;5052953;28;19925;-84
2022/03/14 02:49:18;;;;;;;;;;;7.50;99.90;;;;;;5036035;28;19929;-85
2022/03/14 02:51:45;;;;;;;;;;;7.50;99.90;;;;;;5042908;28;19922;-85
2022/03/14 02:54:11;;;;;;;;;;;7.50;99.90;;;;;;5054340;28;19916;-84
2022/03/14 02:56:36;;;;;;;;;;;7.50;99.90;;;;;;5055442;28;20024;-84
2022/03/14 02:59:03;;;;;;;;;;;7.50;99.90;;;;;;5055016;28;20384;-84
2022/03/14 03:01:28;;;;;;;;;;;7.50;99.90;;;;;;5054346;28;20019;-84
2022/03/14 03:03:54;;;;;;;;;;;7.50;99.90;;;;;;5041090;28;20032;-84
2022/03/14 03:06:22;;;;;;;;;;;7.50;99.90;;;;;;5056708;28;19921;-84
2022/03/14 03:08:52;;;;;;;;;;;7.50;99.90;;;;;;5056515;28;19925;-84
2022/03/14 03:11:18;;;;;;;;;;;7.50;99.90;;;;;;5051863;28;19967;-85
2022/03/14 03:13:48;;;;;;;;;;;7.50;99.90;;;;;;5056506;28;19978;-84
2022/03/14 03:16:16;;;;;;;;;;;7.50;99.90;;;;;;5039917;28;19913;-85
2022/03/14 03:18:42;;;;;;;;;;;7.50;99.90;;;;;;5039686;28;20382;-85
2022/03/14 03:21:08;;;;;;;;;;;7.50;99.90;;;;;;5046125;28;20357;-84
2022/03/14 03:23:35;;;;;;;;;;;7.50;99.90;;;;;;5038683;28;20008;-85
2022/03/14 03:26:01;;;;;;;;;;;7.40;99.90;;;;;;5034581;28;20297;-85
2022/03/14 03:28:26;;;;;;;;;;;7.40;99.90;;;;;;5038252;28;19921;-84
2022/03/14 03:30:53;;;;;;;;;;;7.40;99.90;;;;;;5054458;28;19959;-84
2022/03/14 03:33:19;;;;;;;;;;;7.30;99.90;;;;;;5036847;28;19932;-85
2022/03/14 03:35:44;;;;;;;;;;;7.30;99.90;;;;;;5039147;28;20424;-84
2022/03/14 03:38:10;;;;;;;;;;;7.30;99.90;;;;;;5043055;28;19917;-85
2022/03/14 03:40:35;;;;;;;;;;;7.30;99.90;;;;;;5058797;28;19944;-85
2022/03/14 03:43:01;;;;;;;;;;;7.30;99.90;;;;;;5055025;28;19924;-85
2022/03/14 03:45:26;;;;;;;;;;;7.30;99.90;;;;;;5058265;28;20393;-85
2022/03/14 03:47:52;;;;;;;;;;;7.30;99.90;;;;;;5062859;28;20024;-86
2022/03/14 03:50:18;;;;;;;;;;;7.20;99.90;;;;;;5054224;28;20015;-86
2022/03/14 03:52:43;;;;;;;;;;;7.20;99.90;;;;;;5055481;28;19920;-86
2022/03/14 03:55:12;;;;;;;;;;;7.20;99.90;;;;;;5062857;28;19924;-85
2022/03/14 03:57:37;;;;;;;;;;;7.20;99.90;;;;;;5042856;28;19923;-85
2022/03/14 04:00:04;;;;;;;;;;;7.20;99.90;;;;;;5043678;28;19917;-85
2022/03/14 04:02:35;;;;;;;;;;;7.10;99.90;;;;;;5060438;28;20376;-85
2022/03/14 04:05:01;;;;;;;;;;;7.10;99.90;;;;;;5053908;28;20011;-86
2022/03/14 04:07:27;;;;;;;;;;;7.10;99.90;;;;;;5052960;28;19913;-85
2022/03/14 04:09:56;;;;;;;;;;;7.10;99.90;;;;;;5052623;28;19928;-85
2022/03/14 04:12:24;;;;;;;;;;;7.00;99.90;;;;;;5048414;28;20297;-85
2022/03/14 04:14:51;;;;;;;;;;;7.00;99.90;;;;;;5040913;28;19917;-85
2022/03/14 04:17:17;;;;;;;;;;;7.00;99.90;;;;;;5037548;28;19924;-86
2022/03/14 04:19:45;;;;;;;;;;;7.00;99.90;;;;;;5045594;28;20382;-85
2022/03/14 04:22:13;;;;;;;;;;;6.90;99.90;;;;;;5037688;28;20377;-85
2022/03/14 04:24:38;;;;;;;;;;;6.90;99.90;;;;;;5043883;28;19917;-84
2022/03/14 04:27:04;;;;;;;;;;;6.80;99.90;;;;;;5091034;23;19935;-80
2022/03/14 04:29:30;;;;;;;;;;;6.80;99.90;;;;;;5086717;28;19923;-80
2022/03/14 04:31:55;;;;;;;;;;;6.80;99.90;;;;;;5084707;28;19937;-80
2022/03/14 04:34:21;;;;;;;;;;;6.80;99.90;;;;;;5062045;28;20375;-81
2022/03/14 04:36:50;;;;;;;;;;;6.80;99.90;;;;;;5058129;28;19929;-80
2022/03/14 04:39:19;;;;;;;;;;;6.70;99.90;;;;;;5059951;28;20390;-80
2022/03/14 04:41:47;;;;;;;;;;;6.70;99.90;;;;;;5051391;28;19944;-79
2022/03/14 04:44:13;;;;;;;;;;;6.70;99.90;;;;;;5056245;28;19960;-80
2022/03/14 04:46:38;;;;;;;;;;;6.60;99.90;;;;;;5077478;28;19989;-81
2022/03/14 04:49:04;;;;;;;;;;;6.60;99.90;;;;;;5068589;28;20362;-80
2022/03/14 04:51:31;;;;;;;;;;;6.60;99.90;;;;;;5056942;28;19936;-81
2022/03/14 04:53:57;;;;;;;;;;;6.60;99.90;;;;;;5072980;28;20632;-80
2022/03/14 04:56:23;;;;;;;;;;;6.60;99.90;;;;;;5075207;28;19917;-82
2022/03/14 04:58:48;;;;;;;;;;;6.60;99.90;;;;;;5076166;28;19919;-81
2022/03/14 05:01:14;;;;;;;;;;;6.60;99.90;;;;;;5083836;28;20349;-82
2022/03/14 05:03:39;;;;;;;;;;;6.60;99.90;;;;;;5069259;28;19923;-82
2022/03/14 05:06:05;;;;;;;;;;;6.60;99.90;;;;;;5078416;28;20366;-81
2022/03/14 05:08:30;;;;;;;;;;;6.60;99.90;;;;;;5075435;28;19912;-82
2022/03/14 05:10:57;;;;;;;;;;;6.70;99.90;;;;;;5075484;28;20014;-82
2022/03/14 05:13:23;;;;;;;;;;;6.60;99.90;;;;;;5068951;28;20007;-82
2022/03/14 05:15:48;;;;;;;;;;;6.70;99.90;;;;;;5087301;28;20067;-82
2022/03/14 05:18:14;;;;;;;;;;;6.60;99.90;;;;;;5072406;28;19916;-82
2022/03/14 05:20:40;;;;;;;;;;;6.70;99.90;;;;;;5088238;28;19961;-82
2022/03/14 05:23:06;;;;;;;;;;;6.70;99.90;;;;;;5072896;28;19979;-82
2022/03/14 05:25:32;;;;;;;;;;;6.60;99.90;;;;;;5076474;28;19994;-82
2022/03/14 05:27:57;;;;;;;;;;;6.70;99.90;;;;;;5078545;28;19921;-82
2022/03/14 05:30:23;;;;;;;;;;;6.60;99.90;;;;;;5075903;28;20390;-82
2022/03/14 05:32:49;;;;;;;;;;;6.60;99.90;;;;;;5080448;28;20381;-82
2022/03/14 05:35:18;;;;;;;;;;;6.60;99.90;;;;;;5081425;28;19918;-82
2022/03/14 05:37:44;;;;;;;;;;;6.60;99.90;;;;;;5058493;28;19912;-82
2022/03/14 05:40:10;;;;;;;;;;;6.60;99.90;;;;;;5076925;28;20003;-82
2022/03/14 05:42:36;;;;;;;;;;;6.60;99.90;;;;;;5069573;28;19917;-82
2022/03/14 05:45:02;;;;;;;;;;;6.60;99.90;;;;;;5085659;28;20383;-82
2022/03/14 05:47:28;;;;;;;;;;;6.60;99.90;;;;;;5073422;28;19916;-82
2022/03/14 05:49:53;;;;;;;;;;;6.60;99.90;;;;;;5081445;28;19959;-82
2022/03/14 05:52:21;;;;;;;;;;;6.60;99.90;;;;;;5087360;28;20015;-82
2022/03/14 05:54:47;;;;;;;;;;;6.60;99.90;;;;;;5082351;28;19913;-82
2022/03/14 05:57:13;;;;;;;;;;;6.60;99.90;;;;;;5078124;28;19924;-82
2022/03/14 05:59:38;;;;;;;;;;;6.60;99.90;;;;;;5067070;28;19921;-82
2022/03/14 06:02:04;;;;;;;;;;;6.60;99.90;;;;;;5076687;28;20295;-82
2022/03/14 06:04:29;;;;;;;;;;;6.60;99.90;;;;;;5076931;28;19916;-82
2022/03/14 06:06:56;;;;;;;;;;;6.60;99.90;;;;;;5070113;28;19917;-82
2022/03/14 06:09:25;;;;;;;;;;;6.60;99.90;;;;;;5071819;28;19955;-82
2022/03/14 06:11:53;;;;;;;;;;;6.60;99.90;;;;;;5075147;28;20010;-82
2022/03/14 06:14:19;;;;;;;;;;;6.60;99.90;;;;;;5084757;28;19912;-82
2022/03/14 06:16:45;;;;;;;;;;;6.60;99.90;;;;;;5069644;28;19951;-82
2022/03/14 06:19:10;;;;;;;;;;;6.60;99.90;;;;;;5082946;28;19916;-82
2022/03/14 06:21:38;;;;;;;;;;;6.60;99.90;;;;;;5060959;28;20019;-82
2022/03/14 06:24:05;;;;;;;;;;;6.70;99.90;;;;;;5068920;28;20260;-82
2022/03/14 06:26:30;;;;;;;;;;;6.70;99.90;;;;;;5075857;28;19916;-82
2022/03/14 06:28:56;;;;;;;;;;;6.70;99.90;;;;;;5073194;28;20058;-82
2022/03/14 06:31:21;;;;;;;;;;;6.70;99.90;;;;;;5082980;28;19912;-82
2022/03/14 06:33:49;;;;;;;;;;;6.70;99.90;;;;;;5059665;28;19932;-82
2022/03/14 06:36:14;;;;;;;;;;;6.70;99.90;;;;;;5071690;28;19916;-82
2022/03/14 06:38:40;;;;;;;;;;;6.80;99.90;;;;;;5065931;28;19979;-82
2022/03/14 06:41:07;;;;;;;;;;;6.80;99.90;;;;;;5065203;28;19927;-82
2022/03/14 06:43:33;;;;;;;;;;;6.80;99.90;;;;;;5067633;28;19931;-82
2022/03/14 06:45:58;;;;;;;;;;;6.80;99.90;;;;;;5073593;28;19909;-82
2022/03/14 06:48:24;;;;;;;;;;;6.90;99.90;;;;;;5052439;28;20379;-82
2022/03/14 06:50:49;;;;;;;;;;;6.90;99.90;;;;;;5059735;28;19927;-82
2022/03/14 06:53:15;;;;;;;;;;;6.90;99.90;;;;;;5055860;28;20027;-82
2022/03/14 06:55:41;;;;;;;;;;;6.90;99.90;;;;;;5071042;28;19912;-82
2022/03/14 06:58:09;;;;;;;;;;;6.90;99.90;;;;;;5077987;28;19917;-82
2022/03/14 07:00:35;;;;;;;;;;;6.90;99.90;;;;;;5062473;28;20326;-82
2022/03/14 07:03:01;;;;;;;;;;;7.00;99.90;;;;;;5055967;28;19971;-82
2022/03/14 07:05:26;;;;;;;;;;;7.00;99.90;;;;;;5065759;28;19921;-82
2022/03/14 07:07:52;;;;;;;;;;;7.00;99.90;;;;;;5064594;28;19917;-82
2022/03/14 07:10:18;;;;;;;;;;;7.10;99.90;;;;;;5061074;28;19934;-82
2022/03/14 07:12:45;;;;;;;;;;;7.10;99.90;;;;;;5054662;28;19912;-82
2022/03/14 07:15:11;;;;;;;;;;;7.30;99.90;;;;;;5072052;28;19927;-82
2022/03/14 07:17:37;;;;;;;;;;;7.40;99.90;;;;;;5063063;28;19917;-82
2022/03/14 07:20:03;;;;;;;;;;;7.50;99.90;;;;;;5054686;28;20252;-82
2022/03/14 07:22:36;;;;;;;;;;;7.50;99.90;;;;;;5061769;28;20009;-82
2022/03/14 07:25:08;;;;;;;;;;;7.60;99.90;;;;;;5064688;28;20311;-82
2022/03/14 07:27:34;;;;;;;;;;;7.50;99.90;;;;;;5059787;28;19917;-82
2022/03/14 07:29:59;;;;;;;;;;;7.40;99.90;;;;;;5066205;28;19917;-82
2022/03/14 07:32:25;;;;;;;;;;;7.30;99.90;;;;;;5087245;28;19917;-82
2022/03/14 07:34:50;;;;;;;;;;;7.30;99.90;;;;;;5052859;28;19971;-82
2022/03/14 07:37:16;;;;;;;;;;;7.30;99.90;;;;;;5061485;28;20429;-82
2022/03/14 07:39:41;;;;;;;;;;;7.20;99.90;;;;;;5057584;28;20001;-82
2022/03/14 07:42:07;;;;;;;;;;;7.20;99.90;;;;;;5065632;28;19942;-82
2022/03/14 07:44:33;;;;;;;;;;;7.20;99.90;;;;;;5051597;28;19963;-82
2022/03/14 07:46:58;;;;;;;;;;;7.30;99.90;;;;;;5068119;28;19965;-82
2022/03/14 07:49:24;;;;;;;;;;;7.30;99.90;;;;;;5066865;28;19916;-82
2022/03/14 07:51:49;;;;;;;;;;;7.30;99.90;;;;;;5068035;28;19982;-82
2022/03/14 07:54:15;;;;;;;;;;;7.30;99.90;;;;;;5056467;28;20015;-82
2022/03/14 07:56:42;;;;;;;;;;;7.40;99.90;;;;;;5067241;28;19963;-81
2022/03/14 07:59:07;;;;;;;;;;;7.40;99.90;;;;;;5066240;28;19921;-81
2022/03/14 08:01:33;;;;;;;;;;;7.50;99.90;;;;;;5055986;28;19974;-81
2022/03/14 08:03:58;;;;;;;;;;;7.50;99.90;;;;;;5060043;28;19921;-81
2022/03/14 08:06:24;;;;;;;;;;;7.60;99.90;;;;;;5058145;28;20004;-81
2022/03/14 08:08:50;;;;;;;;;;;7.60;99.90;;;;;;5082467;28;19955;-81
2022/03/14 08:11:17;;;;;;;;;;;7.70;99.90;;;;;;5053176;28;19916;-81
2022/03/14 08:13:43;;;;;;;;;;;7.70;99.90;;;;;;5074300;28;20007;-82
2022/03/14 08:16:09;;;;;;;;;;;7.80;99.90;;;;;;5058700;28;20035;-83
2022/03/14 08:18:34;;;;;;;;;;;7.80;99.90;;;;;;5073948;28;19920;-82
2022/03/14 08:21:00;;;;;;;;;;;7.80;99.90;;;;;;5058338;28;19940;-82
2022/03/14 08:23:25;;;;;;;;;;;7.80;99.90;;;;;;5077346;28;19925;-82
2022/03/14 08:25:52;;;;;;;;;;;7.80;99.90;;;;;;5082352;28;19938;-83
2022/03/14 08:28:17;;;;;;;;;;;7.90;99.90;;;;;;5076665;28;19912;-81
2022/03/14 08:30:45;;;;;;;;;;;7.90;99.90;;;;;;5079708;28;19928;-81
2022/03/14 08:33:10;;;;;;;;;;;7.90;99.90;;;;;;5069658;28;20050;-82
2022/03/14 08:35:36;;;;;;;;;;;7.90;99.90;;;;;;5075434;28;19981;-81
2022/03/14 08:38:02;;;;;;;;;;;8.00;99.90;;;;;;5062201;28;20326;-81
2022/03/14 08:40:27;;;;;;;;;;;8.10;99.90;;;;;;5060110;28;20322;-81
2022/03/14 08:42:54;;;;;;;;;;;8.20;99.90;;;;;;5075238;28;20017;-81
2022/03/14 08:45:20;;;;;;;;;;;8.30;99.90;;;;;;5066648;28;19968;-81
2022/03/14 08:47:45;;;;;;;;;;;8.40;99.90;;;;;;5060627;28;19958;-82
2022/03/14 08:50:12;;;;;;;;;;;8.40;99.90;;;;;;5070243;28;19913;-82
2022/03/14 08:52:37;;;;;;;;;;;8.40;99.90;;;;;;5065961;28;19924;-81
2022/03/14 08:55:03;;;;;;;;;;;8.50;99.90;;;;;;5064000;28;19912;-81
2022/03/14 08:57:29;;;;;;;;;;;8.50;99.90;;;;;;5075511;28;19912;-82
2022/03/14 08:59:55;;;;;;;;;;;8.60;99.90;;;;;;5071459;28;19999;-82
2022/03/14 09:02:21;;;;;;;;;;;8.60;99.90;;;;;;5062118;28;19921;-82
2022/03/14 09:04:46;;;;;;;;;;;8.70;99.90;;;;;;5069331;28;19916;-82
2022/03/14 09:07:22;;;;;;;;;;;8.80;99.90;;;;;;5085797;28;19908;-82
2022/03/14 09:09:48;;;;;;;;;;;8.80;99.90;;;;;;5086091;28;19958;-82
2022/03/14 09:12:14;;;;;;;;;;;8.80;99.90;;;;;;5068923;28;19912;-82
2022/03/14 09:14:40;;;;;;;;;;;8.80;99.90;;;;;;5085858;28;20011;-82
2022/03/14 09:17:06;;;;;;;;;;;8.90;99.90;;;;;;5059892;28;20016;-82
2022/03/14 09:19:32;;;;;;;;;;;8.90;99.90;;;;;;5060814;28;19949;-82
2022/03/14 09:21:58;;;;;;;;;;;9.10;99.90;;;;;;5049822;28;19916;-81
2022/03/14 09:24:25;;;;;;;;;;;9.10;99.90;;;;;;5075918;28;19963;-82
2022/03/14 09:26:50;;;;;;;;;;;9.10;99.90;;;;;;5078222;28;20264;-82
2022/03/14 09:29:16;;;;;;;;;;;9.30;99.90;;;;;;5081870;28;19917;-80
2022/03/14 09:31:42;;;;;;;;;;;9.50;99.90;;;;;;5066330;28;19920;-81
2022/03/14 09:34:08;;;;;;;;;;;9.60;99.90;;;;;;5073480;28;19939;-81
2022/03/14 09:36:33;;;;;;;;;;;9.80;99.90;;;;;;5057797;28;20505;-82
2022/03/14 09:38:59;;;;;;;;;;;9.90;99.90;;;;;;5080019;28;19920;-81
2022/03/14 09:41:28;;;;;;;;;;;10.00;99.90;;;;;;5074140;28;19955;-82
2022/03/14 09:43:55;;;;;;;;;;;10.10;99.90;;;;;;5058166;28;19917;-82
2022/03/14 09:46:21;;;;;;;;;;;10.20;99.90;;;;;;5073652;28;20437;-82
2022/03/14 09:48:49;;;;;;;;;;;10.30;99.90;;;;;;5068703;28;19917;-82
2022/03/14 09:51:16;;;;;;;;;;;10.30;99.90;;;;;;5053515;28;20287;-82
2022/03/14 09:53:44;;;;;;;;;;;10.30;99.90;;;;;;5080437;28;19920;-82
2022/03/14 09:56:10;;;;;;;;;;;10.30;99.90;;;;;;5078908;28;20306;-82
2022/03/14 09:58:36;;;;;;;;;;;10.30;99.90;;;;;;5052140;28;19923;-81
2022/03/14 10:01:03;;;;;;;;;;;10.10;99.90;;;;;;5068401;28;20015;-82
2022/03/14 10:03:28;;;;;;;;;;;9.90;99.90;;;;;;5071219;28;19970;-82
2022/03/14 10:05:54;;;;;;;;;;;9.70;99.90;;;;;;5077495;28;19920;-82
2022/03/14 10:08:22;;;;;;;;;;;9.70;99.90;;;;;;5052970;28;19984;-82
2022/03/14 10:10:48;;;;;;;;;;;9.70;99.90;;;;;;5068245;28;19939;-81
2022/03/14 10:13:15;;;;;;;;;;;9.70;99.90;;;;;;5056939;28;19913;-82
2022/03/14 10:15:40;;;;;;;;;;;9.80;99.90;;;;;;5070411;28;19920;-81
2022/03/14 10:18:24;;;;;;;;;;;9.90;99.90;;;;;;5063876;28;20034;-82
2022/03/14 10:20:55;;;;;;;;;;;10.00;99.90;;;;;;5072415;28;19916;-82
2022/03/14 10:23:31;;;;;;;;;;;9.90;99.90;;;;;;5067124;28;19921;-81
2022/03/14 10:25:56;;;;;;;;;;;9.80;99.90;;;;;;5068658;28;19973;-82
2022/03/14 10:28:23;;;;;;;;;;;9.70;99.90;;;;;;5053352;28;20019;-82
2022/03/14 10:33:23;;;;;;;;;;;9.80;99.90;;;;;;5064111;22;19964;-85
2022/03/14 10:35:48;;;;;;;;;;;9.90;99.90;;;;;;5027263;28;19921;-85
2022/03/14 10:38:16;;;;;;;;;;;10.00;99.90;;;;;;5041490;28;19988;-86
2022/03/14 10:40:42;;;;;;;;;;;10.00;99.90;;;;;;5026424;28;20432;-85
2022/03/14 10:43:20;;;;;;;;;;;10.20;99.90;;;;;;5027214;28;19959;-85
2022/03/14 10:45:46;;;;;;;;;;;10.40;99.90;;;;;;5040185;28;19917;-85
2022/03/14 10:48:11;;;;;;;;;;;10.60;99.90;;;;;;5044418;28;20302;-85
2022/03/14 10:50:38;;;;;;;;;;;10.80;99.90;;;;;;5040566;28;19918;-85
2022/03/14 10:53:16;;;;;;;;;;;10.90;99.90;;;;;;5023458;28;19917;-85
2022/03/14 10:55:41;;;;;;;;;;;10.90;99.30;;;;;;5036031;28;19920;-85
2022/03/14 10:58:08;;;;;;;;;;;10.80;99.20;;;;;;5050332;28;20270;-85
2022/03/14 11:01:06;;;;;;;;;;;10.70;99.10;;;;;;5058034;28;19936;-85
2022/03/14 11:03:32;;;;;;;;;;;10.40;99.70;;;;;;5030147;28;19917;-85
2022/03/14 11:06:00;;;;;;;;;;;10.20;99.90;;;;;;5042070;28;19975;-85
2022/03/14 11:08:35;;;;;;;;;;;10.10;99.90;;;;;;5025657;28;19917;-85
2022/03/14 11:11:02;;;;;;;;;;;10.10;99.90;;;;;;5039489;28;19921;-85
2022/03/14 11:13:27;;;;;;;;;;;10.40;99.90;;;;;;5037898;28;19924;-85
2022/03/14 11:15:53;;;;;;;;;;;10.60;99.90;;;;;;5049914;28;19917;-85
2022/03/14 11:18:19;;;;;;;;;;;10.90;99.90;;;;;;5070677;28;19976;-85
2022/03/14 11:20:45;;;;;;;;;;;10.90;99.90;;;;;;5048776;28;19913;-84
2022/03/14 11:23:12;;;;;;;;;;;10.90;99.30;;;;;;5048260;28;19928;-85
2022/03/14 11:25:38;;;;;;;;;;;10.80;98.40;;;;;;5038926;28;19917;-85
2022/03/14 11:28:04;;;;;;;;;;;10.70;97.60;;;;;;5080062;28;19916;-85
2022/03/14 11:30:35;;;;;;;;;;;10.50;97.10;;;;;;5038318;28;21716;-85
2022/03/14 11:33:02;;;;;;;;;;;10.40;99.30;;;;;;5047662;28;19921;-85
2022/03/14 11:35:27;;;;;;;;;;;10.40;99.90;;;;;;5054304;28;19939;-85
2022/03/14 11:37:55;;;;;;;;;;;10.40;99.50;;;;;;5039368;28;19917;-85
2022/03/14 11:40:21;;;;;;;;;;;10.50;99.70;;;;;;5039950;28;19921;-85
2022/03/14 11:42:47;;;;;;;;;;;10.60;99.40;;;;;;5039794;28;19917;-85
2022/03/14 11:45:12;;;;;;;;;;;10.70;97.30;;;;;;5023590;28;19917;-85
2022/03/14 11:47:38;;;;;;;;;;;10.80;97.00;;;;;;5034304;28;19977;-85
2022/03/14 11:50:04;;;;;;;;;;;10.80;96.00;;;;;;5034388;28;19913;-85
2022/03/14 11:52:36;;;;;;;;;;;10.80;95.30;;;;;;5047016;28;19916;-85
2022/03/14 11:55:04;;;;;;;;;;;10.90;95.40;;;;;;5037286;28;19916;-85
2022/03/14 11:57:34;;;;;;;;;;;11.00;93.80;;;;;;5064069;28;19925;-85
2022/03/14 12:00:27;;;;;;;;;;;11.10;94.80;;;;;;5042820;28;19912;-85
2022/03/14 12:02:56;;;;;;;;;;;11.20;94.90;;;;;;5038456;28;19970;-85
2022/03/14 12:05:45;;;;;;;;;;;11.30;95.60;;;;;;5037690;28;19913;-85
2022/03/14 12:08:13;;;;;;;;;;;11.40;93.00;;;;;;5032640;28;19983;-85
2022/03/14 12:10:39;;;;;;;;;;;11.40;93.60;;;;;;5041944;28;19975;-85
2022/03/14 12:13:04;;;;;;;;;;;11.30;93.00;;;;;;5053485;28;19921;-85
2022/03/14 12:15:37;;;;;;;;;;;11.20;92.50;;;;;;5030503;28;19921;-85
2022/03/14 12:18:25;;;;;;;;;;;11.20;94.30;;;;;;5042264;28;20333;-85
2022/03/14 12:20:55;;;;;;;;;;;11.30;93.30;;;;;;5043193;28;19936;-85
2022/03/14 12:23:23;;;;;;;;;;;11.30;91.50;;;;;;5014226;28;20407;-85
2022/03/14 12:25:49;;;;;;;;;;;11.40;91.20;;;;;;5039242;28;20004;-85
2022/03/14 12:28:25;;;;;;;;;;;11.50;91.70;;;;;;5041602;28;19995;-85
2022/03/14 12:30:50;;;;;;;;;;;11.70;91.90;;;;;;5033925;28;19948;-85
2022/03/14 12:33:32;;;;;;;;;;;11.70;87.70;;;;;;5045946;28;20223;-85
2022/03/14 12:36:17;;;;;;;;;;;11.60;89.20;;;;;;5041058;28;19913;-85
2022/03/14 12:38:43;;;;;;;;;;;11.50;90.10;;;;;;5031434;28;19917;-85
2022/03/14 12:41:20;;;;;;;;;;;11.30;92.00;;;;;;5025443;28;19924;-85
2022/03/14 12:43:51;;;;;;;;;;;11.30;92.60;;;;;;5050473;28;20030;-85
2022/03/14 12:46:16;;;;;;;;;;;11.30;92.50;;;;;;5074082;28;19967;-85
2022/03/14 12:48:50;;;;;;;;;;;11.30;92.70;;;;;;5038031;28;19913;-86
2022/03/14 12:51:23;;;;;;;;;;;11.40;91.70;;;;;;5041794;28;19917;-86
2022/03/14 12:53:50;;;;;;;;;;;11.50;90.20;;;;;;5043750;28;19913;-85
2022/03/14 12:56:20;;;;;;;;;;;11.60;87.80;;;;;;5042362;28;19984;-86
2022/03/14 12:59:09;;;;;;;;;;;11.60;85.80;;;;;;5029087;28;19956;-86
2022/03/14 13:01:37;;;;;;;;;;;11.70;85.80;;;;;;5029237;28;19923;-85
2022/03/14 13:04:05;;;;;;;;;;;12.00;87.70;;;;;;5041216;28;19917;-86
2022/03/14 13:06:32;;;;;;;;;;;12.40;88.20;;;;;;5057365;28;19921;-84
2022/03/14 13:08:58;;;;;;;;;;;12.70;78.30;;;;;;5040765;28;19924;-86
2022/03/14 13:11:31;;;;;;;;;;;12.90;73.80;;;;;;5048211;28;20288;-86
2022/03/14 13:14:00;;;;;;;;;;;13.00;75.00;;;;;;5039679;28;19913;-86
2022/03/14 13:16:29;;;;;;;;;;;13.00;70.70;;;;;;5034274;28;19936;-86
2022/03/14 13:18:55;;;;;;;;;;;13.00;71.90;;;;;;5079347;28;19925;-86
2022/03/14 13:21:23;;;;;;;;;;;13.00;70.30;;;;;;5031791;28;19923;-86
2022/03/14 13:23:56;;;;;;;;;;;13.00;71.10;;;;;;5022318;28;20393;-86
2022/03/14 13:26:22;;;;;;;;;;;12.90;71.30;;;;;;5051956;28;19917;-86
2022/03/14 13:28:48;;;;;;;;;;;12.90;73.10;;;;;;5038080;28;19917;-86
2022/03/14 13:31:14;;;;;;;;;;;13.00;72.90;;;;;;5034860;28;19916;-86
2022/03/14 13:33:41;;;;;;;;;;;13.10;72.60;;;;;;5044513;28;19927;-86
2022/03/14 13:36:10;;;;;;;;;;;13.10;71.40;;;;;;5050300;28;20286;-86
2022/03/14 13:38:37;;;;;;;;;;;13.20;69.50;;;;;;5039058;28;19913;-86
2022/03/14 13:41:04;;;;;;;;;;;13.10;67.40;;;;;;5048217;28;20294;-85
2022/03/14 13:43:30;;;;;;;;;;;12.80;66.90;;;;;;5059091;28;19921;-86
2022/03/14 13:46:14;;;;;;;;;;;12.40;67.60;;;;;;5023807;28;20397;-86
2022/03/14 13:48:48;;;;;;;;;;;12.20;70.80;;;;;;5054879;28;19921;-85
2022/03/14 13:51:14;;;;;;;;;;;11.90;72.30;;;;;;5056790;28;19909;-86
2022/03/14 13:53:44;;;;;;;;;;;11.80;73.70;;;;;;5073165;28;19978;-85
2022/03/14 13:56:10;;;;;;;;;;;11.70;74.10;;;;;;5056294;28;19948;-86
2022/03/14 13:58:36;;;;;;;;;;;11.60;73.20;;;;;;5058082;28;20232;-85
2022/03/14 14:01:02;;;;;;;;;;;11.50;74.40;;;;;;5090185;28;19913;-86
2022/03/14 14:03:30;;;;;;;;;;;11.40;74.20;;;;;;5090390;28;20270;-85
2022/03/14 14:06:11;;;;;;;;;;;11.30;72.30;;;;;;5053015;28;19909;-85
2022/03/14 14:08:37;;;;;;;;;;;11.30;71.80;;;;;;5051776;28;19916;-85
2022/03/14 14:11:02;;;;;;;;;;;11.40;69.40;;;;;;5053261;28;19917;-85
2022/03/14 14:13:47;;;;;;;;;;;11.40;70.70;;;;;;5068885;28;19944;-85
2022/03/14 14:16:20;;;;;;;;;;;11.50;72.50;;;;;;5052149;28;19975;-85
2022/03/14 14:19:05;;;;;;;;;;;11.60;72.40;;;;;;5053435;28;20295;-85
2022/03/14 14:21:31;;;;;;;;;;;11.70;70.30;;;;;;5051777;28;20007;-84
2022/03/14 14:23:56;;;;;;;;;;;11.60;68.90;;;;;;5085469;28;20491;-84
2022/03/14 14:26:32;;;;;;;;;;;11.60;68.00;;;;;;5052037;28;19920;-85
2022/03/14 14:28:57;;;;;;;;;;;11.60;69.20;;;;;;5052676;28;20016;-85